sensor_id;sensor_type;location;lat;lon;timestamp;pressure;altitude;pressure_sealevel;temperature;humidity
9257;BME280;4665;51.368;6.782;2023-05-23T00:00:00;101418.41;;;15.47;100.00
9257;BME280;4665;51.368;6.782;2023-05-23T00:02:26;101412.88;;;15.49;100.00
9257;BME280;4665;51.368;6.782;2023-05-23T00:04:52;101410.38;;;15.39;100.00
9257;BME280;4665;51.368;6.782;2023-05-23T00:07:22;101402.16;;;15.32;100.00
9257;BME280;4665;51.368;6.782;2023-05-23T00:09:48;101418.59;;;15.38;100.00
9257;BME280;4665;51.368;6.782;2023-05-23T00:12:13;101416.09;;;15.28;100.00
9257;BME280;4665;51.368;6.782;2023-05-23T00:14:38;101411.09;;;15.25;100.00
9257;BME280;4665;51.368;6.782;2023-05-23T00:17:04;101429.16;;;15.31;100.00
9257;BME280;4665;51.368;6.782;2023-05-23T00:19:29;101403.38;;;15.13;100.00
9257;BME280;4665;51.368;6.782;2023-05-23T00:21:55;101429.19;;;15.14;100.00
9257;BME280;4665;51.368;6.782;2023-05-23T00:24:21;101410.25;;;14.91;100.00
9257;BME280;4665;51.368;6.782;2023-05-23T00:26:46;101417.13;;;14.94;100.00
9257;BME280;4665;51.368;6.782;2023-05-23T00:29:12;101428.00;;;15.01;100.00
9257;BME280;4665;51.368;6.782;2023-05-23T00:31:41;101427.19;;;15.00;100.00
9257;BME280;4665;51.368;6.782;2023-05-23T00:34:10;101403.03;;;15.00;100.00
9257;BME280;4665;51.368;6.782;2023-05-23T00:36:36;101416.13;;;14.95;100.00
9257;BME280;4665;51.368;6.782;2023-05-23T00:39:02;101430.38;;;14.96;100.00
9257;BME280;4665;51.368;6.782;2023-05-23T00:41:28;101417.13;;;14.86;100.00
9257;BME280;4665;51.368;6.782;2023-05-23T00:43:55;101429.53;;;14.95;100.00
9257;BME280;4665;51.368;6.782;2023-05-23T00:46:22;101422.00;;;14.90;100.00
9257;BME280;4665;51.368;6.782;2023-05-23T00:48:47;101421.16;;;14.98;100.00
9257;BME280;4665;51.368;6.782;2023-05-23T00:51:13;101424.50;;;14.92;100.00
9257;BME280;4665;51.368;6.782;2023-05-23T00:53:40;101424.66;;;14.99;100.00
9257;BME280;4665;51.368;6.782;2023-05-23T00:56:06;101433.88;;;14.96;100.00
9257;BME280;4665;51.368;6.782;2023-05-23T00:58:33;101431.91;;;14.90;100.00
9257;BME280;4665;51.368;6.782;2023-05-23T01:00:58;101435.22;;;14.92;100.00
9257;BME280;4665;51.368;6.782;2023-05-23T01:03:24;101432.88;;;14.89;100.00
9257;BME280;4665;51.368;6.782;2023-05-23T01:05:53;101438.91;;;14.91;100.00
9257;BME280;4665;51.368;6.782;2023-05-23T01:08:20;101426.69;;;14.88;100.00
9257;BME280;4665;51.368;6.782;2023-05-23T01:10:45;101430.03;;;14.90;100.00
9257;BME280;4665;51.368;6.782;2023-05-23T01:13:27;101434.91;;;14.95;100.00
9257;BME280;4665;51.368;6.782;2023-05-23T01:16:05;101431.38;;;14.94;100.00
9257;BME280;4665;51.368;6.782;2023-05-23T01:18:38;101443.63;;;14.97;100.00
9257;BME280;4665;51.368;6.782;2023-05-23T01:21:16;101436.75;;;15.03;100.00
9257;BME280;4665;51.368;6.782;2023-05-23T01:27:00;101433.22;;;15.02;100.00
9257;BME280;4665;51.368;6.782;2023-05-23T01:29:46;101440.28;;;14.95;100.00
9257;BME280;4665;51.368;6.782;2023-05-23T01:32:14;101441.94;;;14.96;100.00
9257;BME280;4665;51.368;6.782;2023-05-23T01:34:40;101437.56;;;15.03;100.00
9257;BME280;4665;51.368;6.782;2023-05-23T01:37:07;101431.38;;;14.94;100.00
9257;BME280;4665;51.368;6.782;2023-05-23T01:39:33;101437.56;;;15.03;100.00
9257;BME280;4665;51.368;6.782;2023-05-23T01:41:59;101439.59;;;15.01;100.00
9257;BME280;4665;51.368;6.782;2023-05-23T01:44:24;101445.78;;;15.10;100.00
9257;BME280;4665;51.368;6.782;2023-05-23T01:46:50;101438.59;;;15.19;100.00
9257;BME280;4665;51.368;6.782;2023-05-23T01:49:16;101450.34;;;15.09;100.00
9257;BME280;4665;51.368;6.782;2023-05-23T01:51:42;101437.56;;;15.03;100.00
9257;BME280;4665;51.368;6.782;2023-05-23T01:54:08;101441.28;;;15.02;100.00
9257;BME280;4665;51.368;6.782;2023-05-23T01:56:34;101442.44;;;15.00;100.00
9257;BME280;4665;51.368;6.782;2023-05-23T01:58:59;101451.66;;;15.05;100.00
9257;BME280;4665;51.368;6.782;2023-05-23T02:01:26;101458.72;;;15.06;100.00
9257;BME280;4665;51.368;6.782;2023-05-23T02:03:51;101454.19;;;15.07;100.00
9257;BME280;4665;51.368;6.782;2023-05-23T02:06:17;101448.31;;;15.03;100.00
9257;BME280;4665;51.368;6.782;2023-05-23T02:08:42;101461.38;;;14.98;100.00
9257;BME280;4665;51.368;6.782;2023-05-23T02:11:08;101449.31;;;15.02;100.00
9257;BME280;4665;51.368;6.782;2023-05-23T02:13:34;101457.69;;;14.99;100.00
9257;BME280;4665;51.368;6.782;2023-05-23T02:16:00;101462.03;;;14.92;100.00
9257;BME280;4665;51.368;6.782;2023-05-23T02:18:26;101453.69;;;14.95;100.00
9257;BME280;4665;51.368;6.782;2023-05-23T02:20:53;101453.16;;;14.91;100.00
9257;BME280;4665;51.368;6.782;2023-05-23T02:23:20;101433.72;;;14.89;100.00
9257;BME280;4665;51.368;6.782;2023-05-23T02:25:45;101452.50;;;14.89;100.00
9257;BME280;4665;51.368;6.782;2023-05-23T02:28:11;101458.38;;;14.93;100.00
9257;BME280;4665;51.368;6.782;2023-05-23T02:30:37;101445.97;;;14.84;100.00
9257;BME280;4665;51.368;6.782;2023-05-23T02:33:06;101441.09;;;14.79;100.00
9257;BME280;4665;51.368;6.782;2023-05-23T02:35:32;101465.91;;;14.89;100.00
9257;BME280;4665;51.368;6.782;2023-05-23T02:37:58;101458.34;;;14.85;100.00
9257;BME280;4665;51.368;6.782;2023-05-23T02:40:23;101453.19;;;14.83;100.00
9257;BME280;4665;51.368;6.782;2023-05-23T02:42:49;101459.72;;;14.81;100.00
9257;BME280;4665;51.368;6.782;2023-05-23T02:45:16;101467.75;;;14.89;100.00
9257;BME280;4665;51.368;6.782;2023-05-23T02:47:41;101472.28;;;14.88;100.00
9257;BME280;4665;51.368;6.782;2023-05-23T02:50:07;101467.91;;;14.87;100.00
9257;BME280;4665;51.368;6.782;2023-05-23T02:52:33;101455.00;;;14.75;100.00
9257;BME280;4665;51.368;6.782;2023-05-23T02:54:58;101457.34;;;14.78;100.00
9257;BME280;4665;51.368;6.782;2023-05-23T02:57:24;101469.09;;;14.85;100.00
9257;BME280;4665;51.368;6.782;2023-05-23T02:59:50;101468.75;;;14.80;100.00
9257;BME280;4665;51.368;6.782;2023-05-23T03:02:15;101468.25;;;14.84;100.00
9257;BME280;4665;51.368;6.782;2023-05-23T03:04:40;101463.53;;;14.78;100.00
9257;BME280;4665;51.368;6.782;2023-05-23T03:07:06;101464.38;;;14.70;100.00
9257;BME280;4665;51.368;6.782;2023-05-23T03:09:32;101472.09;;;14.82;100.00
9257;BME280;4665;51.368;6.782;2023-05-23T03:11:57;101460.69;;;14.63;100.00
9257;BME280;4665;51.368;6.782;2023-05-23T03:14:23;101461.03;;;14.60;100.00
9257;BME280;4665;51.368;6.782;2023-05-23T03:16:48;101465.88;;;14.65;100.00
9257;BME280;4665;51.368;6.782;2023-05-23T03:19:13;101462.19;;;14.66;100.00
9257;BME280;4665;51.368;6.782;2023-05-23T03:21:39;101482.47;;;14.68;100.00
9257;BME280;4665;51.368;6.782;2023-05-23T03:24:05;101480.63;;;14.61;100.00
9257;BME280;4665;51.368;6.782;2023-05-23T03:26:30;101475.44;;;14.67;100.00
9257;BME280;4665;51.368;6.782;2023-05-23T03:28:56;101485.16;;;14.60;100.00
9257;BME280;4665;51.368;6.782;2023-05-23T03:31:21;101477.94;;;14.61;100.00
9257;BME280;4665;51.368;6.782;2023-05-23T03:33:47;101477.72;;;14.46;100.00
9257;BME280;4665;51.368;6.782;2023-05-23T03:36:12;101476.69;;;14.47;100.00
9257;BME280;4665;51.368;6.782;2023-05-23T03:38:38;101483.22;;;14.52;100.00
9257;BME280;4665;51.368;6.782;2023-05-23T03:41:03;101487.91;;;14.42;100.00
9257;BME280;4665;51.368;6.782;2023-05-23T03:43:28;101486.53;;;14.38;100.00
9257;BME280;4665;51.368;6.782;2023-05-23T03:45:54;101500.97;;;14.45;100.00
9257;BME280;4665;51.368;6.782;2023-05-23T03:48:19;101497.47;;;14.45;100.00
9257;BME280;4665;51.368;6.782;2023-05-23T03:50:45;101504.50;;;14.46;100.00
9257;BME280;4665;51.368;6.782;2023-05-23T03:53:10;101514.72;;;14.42;100.00
9257;BME280;4665;51.368;6.782;2023-05-23T03:55:37;101520.22;;;14.41;100.00
9257;BME280;4665;51.368;6.782;2023-05-23T03:58:03;101524.06;;;14.38;100.00
9257;BME280;4665;51.368;6.782;2023-05-23T04:00:28;101522.22;;;14.39;100.00
9257;BME280;4665;51.368;6.782;2023-05-23T04:02:53;101518.50;;;14.31;100.00
9257;BME280;4665;51.368;6.782;2023-05-23T04:05:19;101513.16;;;14.31;100.00
9257;BME280;4665;51.368;6.782;2023-05-23T04:07:45;101527.41;;;14.32;100.00
9257;BME280;4665;51.368;6.782;2023-05-23T04:10:11;101513.47;;;14.20;100.00
9257;BME280;4665;51.368;6.782;2023-05-23T04:12:36;101518.84;;;14.28;100.00
9257;BME280;4665;51.368;6.782;2023-05-23T04:15:02;101509.63;;;14.23;100.00
9257;BME280;4665;51.368;6.782;2023-05-23T04:17:28;101538.47;;;14.37;100.00
9257;BME280;4665;51.368;6.782;2023-05-23T04:19:56;101536.31;;;14.41;100.00
9257;BME280;4665;51.368;6.782;2023-05-23T04:22:21;101536.16;;;14.42;100.00
9257;BME280;4665;51.368;6.782;2023-05-23T04:24:47;101543.72;;;14.47;100.00
9257;BME280;4665;51.368;6.782;2023-05-23T04:27:12;101532.47;;;14.43;100.00
9257;BME280;4665;51.368;6.782;2023-05-23T04:29:37;101544.69;;;14.38;100.00
9257;BME280;4665;51.368;6.782;2023-05-23T04:32:04;101533.44;;;14.34;100.00
9257;BME280;4665;51.368;6.782;2023-05-23T04:34:30;101536.22;;;14.24;100.00
9257;BME280;4665;51.368;6.782;2023-05-23T04:36:58;101526.00;;;14.20;100.00
9257;BME280;4665;51.368;6.782;2023-05-23T04:39:25;101542.44;;;14.25;100.00
9257;BME280;4665;51.368;6.782;2023-05-23T04:41:51;101545.50;;;14.30;100.00
9257;BME280;4665;51.368;6.782;2023-05-23T04:44:18;101552.56;;;14.39;100.00
9257;BME280;4665;51.368;6.782;2023-05-23T04:46:44;101558.09;;;14.38;100.00
9257;BME280;4665;51.368;6.782;2023-05-23T04:49:10;101561.09;;;14.35;100.00
9257;BME280;4665;51.368;6.782;2023-05-23T04:51:37;101565.59;;;14.34;100.00
9257;BME280;4665;51.368;6.782;2023-05-23T04:54:03;101550.78;;;14.22;100.00
9257;BME280;4665;51.368;6.782;2023-05-23T04:56:28;101556.38;;;14.28;100.00
9257;BME280;4665;51.368;6.782;2023-05-23T04:58:54;101540.09;;;14.22;100.00
9257;BME280;4665;51.368;6.782;2023-05-23T05:01:20;101563.72;;;14.26;100.00
9257;BME280;4665;51.368;6.782;2023-05-23T05:03:48;101571.75;;;14.26;100.00
9257;BME280;4665;51.368;6.782;2023-05-23T05:06:13;101565.50;;;14.18;100.00
9257;BME280;4665;51.368;6.782;2023-05-23T05:08:40;101556.63;;;14.17;100.00
9257;BME280;4665;51.368;6.782;2023-05-23T05:11:05;101561.31;;;14.15;100.00
9257;BME280;4665;51.368;6.782;2023-05-23T05:13:31;101557.78;;;14.15;100.00
9257;BME280;4665;51.368;6.782;2023-05-23T05:15:57;101563.16;;;14.15;100.00
9257;BME280;4665;51.368;6.782;2023-05-23T05:18:23;101569.31;;;14.07;100.00
9257;BME280;4665;51.368;6.782;2023-05-23T05:20:49;101556.53;;;14.01;100.00
9257;BME280;4665;51.368;6.782;2023-05-23T05:23:15;101577.34;;;14.07;100.00
9257;BME280;4665;51.368;6.782;2023-05-23T05:25:40;101587.59;;;14.12;100.00
9257;BME280;4665;51.368;6.782;2023-05-23T05:28:06;101588.44;;;14.12;100.00
9257;BME280;4665;51.368;6.782;2023-05-23T05:30:32;101595.78;;;14.10;100.00
9257;BME280;4665;51.368;6.782;2023-05-23T05:33:01;101604.84;;;14.09;100.00
9257;BME280;4665;51.368;6.782;2023-05-23T05:35:32;101598.78;;;14.07;100.00
9257;BME280;4665;51.368;6.782;2023-05-23T05:37:58;101588.44;;;14.12;100.00
9257;BME280;4665;51.368;6.782;2023-05-23T05:40:23;101606.72;;;14.17;100.00
9257;BME280;4665;51.368;6.782;2023-05-23T05:42:49;101606.19;;;14.13;100.00
9257;BME280;4665;51.368;6.782;2023-05-23T05:45:15;101600.34;;;14.18;100.00
9257;BME280;4665;51.368;6.782;2023-05-23T05:47:40;101603.97;;;14.08;100.00
9257;BME280;4665;51.368;6.782;2023-05-23T05:50:06;101614.22;;;14.13;100.00
9257;BME280;4665;51.368;6.782;2023-05-23T05:52:33;101619.63;;;14.21;100.00
9257;BME280;4665;51.368;6.782;2023-05-23T05:55:03;101623.63;;;14.17;100.00
9257;BME280;4665;51.368;6.782;2023-05-23T05:57:31;101623.63;;;14.17;100.00
9257;BME280;4665;51.368;6.782;2023-05-23T05:59:56;101621.13;;;14.16;100.00
9257;BME280;4665;51.368;6.782;2023-05-23T06:02:21;101618.84;;;14.03;100.00
9257;BME280;4665;51.368;6.782;2023-05-23T06:04:47;101621.53;;;14.03;100.00
9257;BME280;4665;51.368;6.782;2023-05-23T06:07:12;101620.25;;;14.15;100.00
9257;BME280;4665;51.368;6.782;2023-05-23T06:09:37;101612.88;;;14.09;100.00
9257;BME280;4665;51.368;6.782;2023-05-23T06:12:03;101623.59;;;14.09;100.00
9257;BME280;4665;51.368;6.782;2023-05-23T06:14:28;101612.47;;;14.04;100.00
9257;BME280;4665;51.368;6.782;2023-05-23T06:16:54;101623.50;;;14.01;100.00
9257;BME280;4665;51.368;6.782;2023-05-23T06:19:19;101605.22;;;13.96;100.00
9257;BME280;4665;51.368;6.782;2023-05-23T06:21:44;101612.13;;;13.99;100.00
9257;BME280;4665;51.368;6.782;2023-05-23T06:24:10;101622.00;;;13.98;100.00
9257;BME280;4665;51.368;6.782;2023-05-23T06:26:35;101626.19;;;14.01;100.00
9257;BME280;4665;51.368;6.782;2023-05-23T06:29:02;101620.63;;;13.94;100.00
9257;BME280;4665;51.368;6.782;2023-05-23T06:31:27;101628.72;;;14.02;100.00
9257;BME280;4665;51.368;6.782;2023-05-23T06:33:52;101624.91;;;14.05;100.00
9257;BME280;4665;51.368;6.782;2023-05-23T06:36:18;101628.72;;;14.02;100.00
9257;BME280;4665;51.368;6.782;2023-05-23T06:38:43;101624.66;;;13.98;100.00
9257;BME280;4665;51.368;6.782;2023-05-23T06:41:09;101627.50;;;13.97;100.00
9257;BME280;4665;51.368;6.782;2023-05-23T06:43:34;101631.41;;;14.02;100.00
9257;BME280;4665;51.368;6.782;2023-05-23T06:46:00;101628.72;;;14.02;100.00
9257;BME280;4665;51.368;6.782;2023-05-23T06:48:25;101641.94;;;14.04;100.00
9257;BME280;4665;51.368;6.782;2023-05-23T06:50:51;101630.88;;;13.99;100.00
9257;BME280;4665;51.368;6.782;2023-05-23T06:53:16;101628.03;;;14.00;100.00
9257;BME280;4665;51.368;6.782;2023-05-23T06:55:42;101625.00;;;13.95;100.00
9257;BME280;4665;51.368;6.782;2023-05-23T06:58:08;101638.75;;;14.00;100.00
9257;BME280;4665;51.368;6.782;2023-05-23T07:00:33;101651.69;;;14.05;100.00
9257;BME280;4665;51.368;6.782;2023-05-23T07:02:59;101647.63;;;14.01;100.00
9257;BME280;4665;51.368;6.782;2023-05-23T07:05:27;101652.63;;;13.96;100.00
9257;BME280;4665;51.368;6.782;2023-05-23T07:07:52;101638.84;;;13.91;100.00
9257;BME280;4665;51.368;6.782;2023-05-23T07:10:18;101652.97;;;14.01;100.00
9257;BME280;4665;51.368;6.782;2023-05-23T07:12:44;101638.84;;;13.91;100.00
9257;BME280;4665;51.368;6.782;2023-05-23T07:15:10;101643.75;;;13.95;100.00
9257;BME280;4665;51.368;6.782;2023-05-23T07:17:36;101639.91;;;13.98;100.00
9257;BME280;4665;51.368;6.782;2023-05-23T07:20:01;101637.59;;;14.03;100.00
9257;BME280;4665;51.368;6.782;2023-05-23T07:22:29;101675.00;;;14.13;100.00
9257;BME280;4665;51.368;6.782;2023-05-23T07:24:54;101663.59;;;14.10;100.00
9257;BME280;4665;51.368;6.782;2023-05-23T07:27:19;101664.38;;;14.03;100.00
9257;BME280;4665;51.368;6.782;2023-05-23T07:29:45;101663.84;;;13.99;100.00
9257;BME280;4665;51.368;6.782;2023-05-23T07:32:10;101669.75;;;14.03;100.00
9257;BME280;4665;51.368;6.782;2023-05-23T07:34:35;101681.75;;;13.99;100.00
9257;BME280;4665;51.368;6.782;2023-05-23T07:37:01;101690.97;;;13.96;100.00
9257;BME280;4665;51.368;6.782;2023-05-23T07:39:26;101680.66;;;13.83;100.00
9257;BME280;4665;51.368;6.782;2023-05-23T07:41:52;101686.59;;;13.95;100.00
9257;BME280;4665;51.368;6.782;2023-05-23T07:44:17;101680.72;;;13.74;100.00
9257;BME280;4665;51.368;6.782;2023-05-23T07:46:43;101688.22;;;13.70;100.00
9257;BME280;4665;51.368;6.782;2023-05-23T07:49:08;101707.28;;;13.67;100.00
9257;BME280;4665;51.368;6.782;2023-05-23T07:51:34;101704.75;;;13.65;100.00
9257;BME280;4665;51.368;6.782;2023-05-23T07:54:00;101697.06;;;13.53;100.00
9257;BME280;4665;51.368;6.782;2023-05-23T07:56:25;101701.72;;;13.51;100.00
9257;BME280;4665;51.368;6.782;2023-05-23T07:58:51;101700.06;;;13.50;100.00
9257;BME280;4665;51.368;6.782;2023-05-23T08:01:16;101718.09;;;13.47;100.00
9257;BME280;4665;51.368;6.782;2023-05-23T08:03:42;101711.44;;;13.34;100.00
9257;BME280;4665;51.368;6.782;2023-05-23T08:06:08;101719.38;;;13.43;100.00
9257;BME280;4665;51.368;6.782;2023-05-23T08:08:34;101729.31;;;13.33;100.00
9257;BME280;4665;51.368;6.782;2023-05-23T08:11:00;101731.78;;;13.17;100.00
9257;BME280;4665;51.368;6.782;2023-05-23T08:13:25;101747.56;;;13.10;100.00
9257;BME280;4665;51.368;6.782;2023-05-23T08:15:51;101736.16;;;13.08;100.00
9257;BME280;4665;51.368;6.782;2023-05-23T08:18:16;101742.53;;;13.07;100.00
9257;BME280;4665;51.368;6.782;2023-05-23T08:20:42;101736.25;;;12.89;100.00
9257;BME280;4665;51.368;6.782;2023-05-23T08:23:07;101754.38;;;13.04;100.00
9257;BME280;4665;51.368;6.782;2023-05-23T08:25:33;101740.56;;;12.72;100.00
9257;BME280;4665;51.368;6.782;2023-05-23T08:27:59;101741.00;;;12.67;100.00
9257;BME280;4665;51.368;6.782;2023-05-23T08:30:26;101761.25;;;12.70;100.00
9257;BME280;4665;51.368;6.782;2023-05-23T08:32:52;101768.41;;;12.59;100.00
9257;BME280;4665;51.368;6.782;2023-05-23T08:35:19;101772.94;;;12.59;100.00
9257;BME280;4665;51.368;6.782;2023-05-23T08:37:45;101751.69;;;12.48;100.00
9257;BME280;4665;51.368;6.782;2023-05-23T08:40:26;101781.06;;;12.57;100.00
9257;BME280;4665;51.368;6.782;2023-05-23T08:42:54;101770.56;;;12.56;100.00
9257;BME280;4665;51.368;6.782;2023-05-23T08:45:20;101778.69;;;12.64;100.00
9257;BME280;4665;51.368;6.782;2023-05-23T08:47:46;101765.63;;;12.51;100.00
9257;BME280;4665;51.368;6.782;2023-05-23T08:50:16;101783.75;;;12.67;100.00
9257;BME280;4665;51.368;6.782;2023-05-23T08:52:55;101782.63;;;12.70;100.00
9257;BME280;4665;51.368;6.782;2023-05-23T08:55:28;101785.88;;;12.63;100.00
9257;BME280;4665;51.368;6.782;2023-05-23T08:57:56;101782.34;;;12.63;100.00
9257;BME280;4665;51.368;6.782;2023-05-23T09:00:24;101795.84;;;12.61;100.00
9257;BME280;4665;51.368;6.782;2023-05-23T09:02:50;101800.22;;;12.62;100.00
9257;BME280;4665;51.368;6.782;2023-05-23T09:05:15;101793.34;;;12.50;100.00
9257;BME280;4665;51.368;6.782;2023-05-23T09:07:43;101808.38;;;12.41;100.00
9257;BME280;4665;51.368;6.782;2023-05-23T09:10:11;101818.66;;;12.46;100.00
9257;BME280;4665;51.368;6.782;2023-05-23T09:12:38;101802.91;;;12.33;100.00
9257;BME280;4665;51.368;6.782;2023-05-23T09:15:05;101818.22;;;12.41;100.00
9257;BME280;4665;51.368;6.782;2023-05-23T09:17:32;101810.50;;;12.38;100.00
9257;BME280;4665;51.368;6.782;2023-05-23T09:19:58;101800.66;;;12.38;100.00
9257;BME280;4665;51.368;6.782;2023-05-23T09:22:25;101807.69;;;12.49;100.00
9257;BME280;4665;51.368;6.782;2023-05-23T09:24:52;101808.25;;;12.43;100.00
9257;BME280;4665;51.368;6.782;2023-05-23T09:27:17;101809.66;;;12.47;100.00
9257;BME280;4665;51.368;6.782;2023-05-23T09:29:43;101796.31;;;12.47;100.00
9257;BME280;4665;51.368;6.782;2023-05-23T09:32:16;101801.91;;;12.63;100.00
9257;BME280;4665;51.368;6.782;2023-05-23T09:37:34;101806.69;;;12.60;100.00
9257;BME280;4665;51.368;6.782;2023-05-23T09:40:05;101815.81;;;12.57;100.00
9257;BME280;4665;51.368;6.782;2023-05-23T09:42:32;101826.94;;;12.53;100.00
9257;BME280;4665;51.368;6.782;2023-05-23T09:44:58;101818.09;;;12.42;100.00
9257;BME280;4665;51.368;6.782;2023-05-23T09:47:24;101824.41;;;12.41;100.00
9257;BME280;4665;51.368;6.782;2023-05-23T09:49:50;101823.88;;;12.28;100.00
9257;BME280;4665;51.368;6.782;2023-05-23T09:52:15;101834.41;;;12.20;100.00
9257;BME280;4665;51.368;6.782;2023-05-23T09:54:42;101844.69;;;12.25;100.00
9257;BME280;4665;51.368;6.782;2023-05-23T09:57:09;101832.72;;;12.19;100.00
9257;BME280;4665;51.368;6.782;2023-05-23T09:59:38;101819.09;;;12.03;100.00
9257;BME280;4665;51.368;6.782;2023-05-23T10:02:12;101826.69;;;12.07;100.00
9257;BME280;4665;51.368;6.782;2023-05-23T10:04:41;101829.59;;;12.04;100.00
9257;BME280;4665;51.368;6.782;2023-05-23T10:07:37;101833.81;;;11.97;100.00
9257;BME280;4665;51.368;6.782;2023-05-23T10:10:10;101818.50;;;11.89;100.00
9257;BME280;4665;51.368;6.782;2023-05-23T10:12:46;101816.94;;;11.96;100.00
9257;BME280;4665;51.368;6.782;2023-05-23T10:15:14;101820.63;;;12.05;100.00
9257;BME280;4665;51.368;6.782;2023-05-23T10:20:24;101815.69;;;12.30;100.00
9257;BME280;4665;51.368;6.782;2023-05-23T10:22:50;101808.69;;;12.38;100.00
9257;BME280;4665;51.368;6.782;2023-05-23T10:25:16;101808.41;;;12.51;100.00
9257;BME280;4665;51.368;6.782;2023-05-23T10:27:42;101816.09;;;12.74;100.00
9257;BME280;4665;51.368;6.782;2023-05-23T10:30:08;101806.63;;;12.89;100.00
9257;BME280;4665;51.368;6.782;2023-05-23T10:32:34;101815.59;;;13.08;100.00
9257;BME280;4665;51.368;6.782;2023-05-23T10:38:00;101819.81;;;13.47;100.00
9257;BME280;4665;51.368;6.782;2023-05-23T10:40:57;101812.50;;;13.50;100.00
9257;BME280;4665;51.368;6.782;2023-05-23T10:43:35;101804.75;;;13.46;100.00
9257;BME280;4665;51.368;6.782;2023-05-23T10:46:07;101818.84;;;13.49;100.00
9257;BME280;4665;51.368;6.782;2023-05-23T10:48:34;101818.06;;;13.29;100.00
9257;BME280;4665;51.368;6.782;2023-05-23T10:51:01;101814.25;;;13.31;100.00
9257;BME280;4665;51.368;6.782;2023-05-23T10:53:31;101807.25;;;13.30;100.00
9257;BME280;4665;51.368;6.782;2023-05-23T10:55:58;101811.00;;;13.37;100.00
9257;BME280;4665;51.368;6.782;2023-05-23T10:58:24;101832.63;;;13.54;100.00
9257;BME280;4665;51.368;6.782;2023-05-23T11:00:54;101817.44;;;13.44;100.00
9257;BME280;4665;51.368;6.782;2023-05-23T11:03:30;101834.50;;;13.43;100.00
9257;BME280;4665;51.368;6.782;2023-05-23T11:05:58;101836.31;;;13.43;100.00
9257;BME280;4665;51.368;6.782;2023-05-23T11:08:23;101849.72;;;13.43;100.00
9257;BME280;4665;51.368;6.782;2023-05-23T11:10:59;101855.50;;;13.38;100.00
9257;BME280;4665;51.368;6.782;2023-05-23T11:13:25;101846.25;;;13.33;100.00
9257;BME280;4665;51.368;6.782;2023-05-23T11:16:31;101854.53;;;13.30;100.00
9257;BME280;4665;51.368;6.782;2023-05-23T11:21:56;101839.19;;;13.22;100.00
9257;BME280;4665;51.368;6.782;2023-05-23T11:24:22;101843.28;;;13.26;100.00
9257;BME280;4665;51.368;6.782;2023-05-23T11:26:57;101848.34;;;13.29;100.00
9257;BME280;4665;51.368;6.782;2023-05-23T11:29:26;101841.28;;;13.38;100.00
9257;BME280;4665;51.368;6.782;2023-05-23T11:31:53;101837.84;;;13.45;100.00
9257;BME280;4665;51.368;6.782;2023-05-23T11:34:19;101825.19;;;13.47;100.00
9257;BME280;4665;51.368;6.782;2023-05-23T11:36:45;101842.06;;;13.58;100.00
9257;BME280;4665;51.368;6.782;2023-05-23T11:39:12;101842.78;;;13.50;100.00
9257;BME280;4665;51.368;6.782;2023-05-23T11:41:38;101837.84;;;13.45;100.00
9257;BME280;4665;51.368;6.782;2023-05-23T11:44:12;101846.06;;;13.34;100.00
9257;BME280;4665;51.368;6.782;2023-05-23T11:46:38;101853.13;;;13.35;100.00
9257;BME280;4665;51.368;6.782;2023-05-23T11:49:10;101854.22;;;13.42;100.00
9257;BME280;4665;51.368;6.782;2023-05-23T11:51:36;101829.88;;;13.26;100.00
9257;BME280;4665;51.368;6.782;2023-05-23T11:54:01;101855.63;;;13.46;100.00
9257;BME280;4665;51.368;6.782;2023-05-23T11:56:27;101856.97;;;13.60;100.00
9257;BME280;4665;51.368;6.782;2023-05-23T11:58:55;101830.19;;;13.60;100.00
9257;BME280;4665;51.368;6.782;2023-05-23T12:01:28;101838.22;;;13.88;100.00
9257;BME280;4665;51.368;6.782;2023-05-23T12:03:55;101858.44;;;14.00;100.00
9257;BME280;4665;51.368;6.782;2023-05-23T12:06:21;101857.13;;;14.22;100.00
9257;BME280;4665;51.368;6.782;2023-05-23T12:08:50;101844.59;;;14.05;100.00
9257;BME280;4665;51.368;6.782;2023-05-23T12:11:16;101858.50;;;14.08;100.00
9257;BME280;4665;51.368;6.782;2023-05-23T12:13:41;101863.03;;;14.08;100.00
9257;BME280;4665;51.368;6.782;2023-05-23T12:16:07;101846.88;;;14.00;100.00
9257;BME280;4665;51.368;6.782;2023-05-23T12:18:33;101843.91;;;14.21;100.00
9257;BME280;4665;51.368;6.782;2023-05-23T12:21:01;101841.53;;;14.36;100.00
9257;BME280;4665;51.368;6.782;2023-05-23T12:23:28;101842.22;;;14.38;100.00
9257;BME280;4665;51.368;6.782;2023-05-23T12:26:05;101841.53;;;14.36;100.00
9257;BME280;4665;51.368;6.782;2023-05-23T12:28:38;101841.06;;;14.22;100.00
9257;BME280;4665;51.368;6.782;2023-05-23T12:31:18;101855.03;;;14.44;100.00
9257;BME280;4665;51.368;6.782;2023-05-23T12:33:45;101847.97;;;14.43;100.00
9257;BME280;4665;51.368;6.782;2023-05-23T12:36:12;101844.66;;;14.31;100.00
9257;BME280;4665;51.368;6.782;2023-05-23T12:38:38;101827.44;;;14.34;100.00
9257;BME280;4665;51.368;6.782;2023-05-23T12:41:23;101839.97;;;14.69;100.00
9257;BME280;4665;51.368;6.782;2023-05-23T12:43:53;101851.94;;;14.75;100.00
9257;BME280;4665;51.368;6.782;2023-05-23T12:46:25;101844.03;;;14.73;100.00
9257;BME280;4665;51.368;6.782;2023-05-23T12:48:52;101849.63;;;14.80;100.00
9257;BME280;4665;51.368;6.782;2023-05-23T12:51:17;101844.63;;;14.85;100.00
9257;BME280;4665;51.368;6.782;2023-05-23T12:53:43;101842.63;;;14.87;100.00
9257;BME280;4665;51.368;6.782;2023-05-23T12:56:08;101835.59;;;14.86;100.00
9257;BME280;4665;51.368;6.782;2023-05-23T12:58:34;101838.66;;;14.91;100.00
9257;BME280;4665;51.368;6.782;2023-05-23T13:01:00;101840.66;;;14.89;100.00
9257;BME280;4665;51.368;6.782;2023-05-23T13:03:27;101818.66;;;14.85;100.00
9257;BME280;4665;51.368;6.782;2023-05-23T13:05:55;101843.66;;;15.12;100.00
9257;BME280;4665;51.368;6.782;2023-05-23T13:08:25;101828.09;;;15.15;100.00
9257;BME280;4665;51.368;6.782;2023-05-23T13:10:52;101823.34;;;15.09;100.00
9257;BME280;4665;51.368;6.782;2023-05-23T13:13:18;101821.81;;;15.07;100.00